sensor_id;sensor_type;location;lat;lon;timestamp;pressure;altitude;pressure_sealevel;temperature;humidity
21545;BME280;10933;50.754;11.508;2023-12-28T00:00:13;99417.81;;;5.57;100.00
21545;BME280;10933;50.754;11.508;2023-12-28T00:02:39;99429.34;;;4.83;100.00
21545;BME280;10933;50.754;11.508;2023-12-28T00:05:07;99419.47;;;4.58;100.00
21545;BME280;10933;50.754;11.508;2023-12-28T00:07:33;99412.63;;;4.31;100.00
21545;BME280;10933;50.754;11.508;2023-12-28T00:09:59;99401.59;;;4.21;100.00
21545;BME280;10933;50.754;11.508;2023-12-28T00:12:25;99386.13;;;3.91;100.00
21545;BME280;10933;50.754;11.508;2023-12-28T00:14:51;99395.97;;;3.97;100.00
21545;BME280;10933;50.754;11.508;2023-12-28T00:17:18;99394.72;;;3.93;100.00
21545;BME280;10933;50.754;11.508;2023-12-28T00:19:44;99390.19;;;4.00;100.00
21545;BME280;10933;50.754;11.508;2023-12-28T00:22:10;99392.22;;;4.05;100.00
21545;BME280;10933;50.754;11.508;2023-12-28T00:24:36;99391.38;;;4.11;100.00
21545;BME280;10933;50.754;11.508;2023-12-28T00:27:02;99382.16;;;4.07;100.00
21545;BME280;10933;50.754;11.508;2023-12-28T00:29:28;99383.97;;;4.13;100.00
21545;BME280;10933;50.754;11.508;2023-12-28T00:31:55;99406.34;;;5.31;100.00
21545;BME280;10933;50.754;11.508;2023-12-28T00:34:21;99439.03;;;7.03;100.00
21545;BME280;10933;50.754;11.508;2023-12-28T00:36:47;99460.88;;;7.30;100.00
21545;BME280;10933;50.754;11.508;2023-12-28T00:39:13;99476.28;;;7.47;100.00
21545;BME280;10933;50.754;11.508;2023-12-28T00:41:41;99476.31;;;7.70;100.00
21545;BME280;10933;50.754;11.508;2023-12-28T00:44:07;99467.91;;;7.66;100.00
21545;BME280;10933;50.754;11.508;2023-12-28T00:46:35;99470.56;;;7.90;100.00
21545;BME280;10933;50.754;11.508;2023-12-28T00:49:01;99464.38;;;8.01;100.00
21545;BME280;10933;50.754;11.508;2023-12-28T00:51:28;99481.75;;;7.87;100.00
21545;BME280;10933;50.754;11.508;2023-12-28T00:53:54;99469.88;;;7.83;100.00
21545;BME280;10933;50.754;11.508;2023-12-28T00:56:20;99462.03;;;7.93;100.00
21545;BME280;10933;50.754;11.508;2023-12-28T00:58:47;99474.06;;;7.90;100.00
21545;BME280;10933;50.754;11.508;2023-12-28T01:01:13;99476.03;;;8.07;100.00
21545;BME280;10933;50.754;11.508;2023-12-28T01:03:39;99474.31;;;7.89;100.00
21545;BME280;10933;50.754;11.508;2023-12-28T01:06:06;99470.34;;;7.91;100.00
21545;BME280;10933;50.754;11.508;2023-12-28T01:08:32;99453.97;;;8.05;100.00
21545;BME280;10933;50.754;11.508;2023-12-28T01:11:01;99450.28;;;8.22;100.00
21545;BME280;10933;50.754;11.508;2023-12-28T01:13:28;99457.88;;;8.37;100.00
21545;BME280;10933;50.754;11.508;2023-12-28T01:15:55;99458.22;;;8.69;100.00
21545;BME280;10933;50.754;11.508;2023-12-28T01:18:21;99461.34;;;8.78;100.00
21545;BME280;10933;50.754;11.508;2023-12-28T01:20:47;99475.50;;;8.73;100.00
21545;BME280;10933;50.754;11.508;2023-12-28T01:23:13;99482.16;;;8.54;100.00
21545;BME280;10933;50.754;11.508;2023-12-28T01:25:39;99492.13;;;8.70;100.00
21545;BME280;10933;50.754;11.508;2023-12-28T01:28:05;99499.22;;;8.76;100.00
21545;BME280;10933;50.754;11.508;2023-12-28T01:30:31;99474.38;;;8.69;100.00
21545;BME280;10933;50.754;11.508;2023-12-28T01:33:00;99465.25;;;8.70;100.00
21545;BME280;10933;50.754;11.508;2023-12-28T01:35:26;99475.41;;;8.97;100.00
21545;BME280;10933;50.754;11.508;2023-12-28T01:37:52;99482.50;;;9.03;100.00
21545;BME280;10933;50.754;11.508;2023-12-28T01:40:18;99467.25;;;8.92;100.00
21545;BME280;10933;50.754;11.508;2023-12-28T01:42:45;99475.69;;;8.83;100.00
21545;BME280;10933;50.754;11.508;2023-12-28T01:45:11;99448.69;;;9.07;100.00
21545;BME280;10933;50.754;11.508;2023-12-28T01:47:38;99458.00;;;9.16;100.00
21545;BME280;10933;50.754;11.508;2023-12-28T01:50:06;99492.13;;;8.99;100.00
21545;BME280;10933;50.754;11.508;2023-12-28T01:52:33;99493.34;;;9.08;100.00
21545;BME280;10933;50.754;11.508;2023-12-28T01:54:59;99495.38;;;9.01;100.00
21545;BME280;10933;50.754;11.508;2023-12-28T01:57:26;99507.34;;;8.93;100.00
21545;BME280;10933;50.754;11.508;2023-12-28T01:59:53;99474.56;;;8.79;100.00
21545;BME280;10933;50.754;11.508;2023-12-28T02:02:22;99505.50;;;8.65;100.00
21545;BME280;10933;50.754;11.508;2023-12-28T02:04:48;99503.38;;;8.67;100.00
21545;BME280;10933;50.754;11.508;2023-12-28T02:07:15;99495.03;;;8.80;100.00
21545;BME280;10933;50.754;11.508;2023-12-28T02:09:41;99484.00;;;8.82;100.00
21545;BME280;10933;50.754;11.508;2023-12-28T02:12:08;99485.03;;;8.93;100.00
21545;BME280;10933;50.754;11.508;2023-12-28T02:14:34;99460.81;;;8.93;100.00
21545;BME280;10933;50.754;11.508;2023-12-28T02:17:20;99480.84;;;9.02;100.00
21545;BME280;10933;50.754;11.508;2023-12-28T02:19:55;99474.53;;;9.08;100.00
21545;BME280;10933;50.754;11.508;2023-12-28T02:22:25;99482.66;;;9.13;100.00
21545;BME280;10933;50.754;11.508;2023-12-28T02:27:25;99496.13;;;9.13;100.00
21545;BME280;10933;50.754;11.508;2023-12-28T02:29:52;99463.56;;;8.98;100.00
21545;BME280;10933;50.754;11.508;2023-12-28T02:32:22;99490.59;;;9.03;100.00
21545;BME280;10933;50.754;11.508;2023-12-28T02:34:56;99492.53;;;8.91;100.00
21545;BME280;10933;50.754;11.508;2023-12-28T02:37:26;99502.31;;;8.97;100.00
21545;BME280;10933;50.754;11.508;2023-12-28T02:39:54;99512.41;;;8.90;100.00
21545;BME280;10933;50.754;11.508;2023-12-28T02:42:20;99472.28;;;8.88;100.00
21545;BME280;10933;50.754;11.508;2023-12-28T02:44:46;99498.75;;;9.08;100.00
21545;BME280;10933;50.754;11.508;2023-12-28T02:47:12;99495.84;;;8.98;100.00
21545;BME280;10933;50.754;11.508;2023-12-28T02:49:39;99515.66;;;8.92;100.00
21545;BME280;10933;50.754;11.508;2023-12-28T02:52:06;99498.72;;;8.91;100.00
21545;BME280;10933;50.754;11.508;2023-12-28T02:54:32;99527.34;;;9.14;100.00
21545;BME280;10933;50.754;11.508;2023-12-28T02:56:58;99520.06;;;8.98;100.00
21545;BME280;10933;50.754;11.508;2023-12-28T02:59:24;99518.63;;;9.07;100.00
21545;BME280;10933;50.754;11.508;2023-12-28T03:05:47;99521.75;;;9.16;100.00
21545;BME280;10933;50.754;11.508;2023-12-28T03:08:13;99482.78;;;9.18;100.00
21545;BME280;10933;50.754;11.508;2023-12-28T03:10:39;99547.56;;;9.28;100.00
21545;BME280;10933;50.754;11.508;2023-12-28T03:13:06;99531.78;;;9.20;100.00
21545;BME280;10933;50.754;11.508;2023-12-28T03:15:32;99527.97;;;9.33;100.00
21545;BME280;10933;50.754;11.508;2023-12-28T03:17:58;99511.66;;;9.39;100.00
21545;BME280;10933;50.754;11.508;2023-12-28T03:20:25;99492.72;;;9.34;100.00
21545;BME280;10933;50.754;11.508;2023-12-28T03:22:51;99509.38;;;9.31;100.00
21545;BME280;10933;50.754;11.508;2023-12-28T03:25:17;99524.41;;;9.44;100.00
21545;BME280;10933;50.754;11.508;2023-12-28T03:27:43;99509.94;;;9.33;100.00
21545;BME280;10933;50.754;11.508;2023-12-28T03:30:10;99531.72;;;9.32;100.00
21545;BME280;10933;50.754;11.508;2023-12-28T03:32:36;99530.41;;;9.34;100.00
21545;BME280;10933;50.754;11.508;2023-12-28T03:35:02;99518.34;;;9.37;100.00
21545;BME280;10933;50.754;11.508;2023-12-28T03:37:29;99524.53;;;9.37;100.00
21545;BME280;10933;50.754;11.508;2023-12-28T03:39:55;99527.81;;;9.39;100.00
21545;BME280;10933;50.754;11.508;2023-12-28T03:42:22;99519.81;;;9.44;100.00
21545;BME280;10933;50.754;11.508;2023-12-28T03:44:48;99528.22;;;9.48;100.00
21545;BME280;10933;50.754;11.508;2023-12-28T03:47:14;99518.50;;;9.47;100.00
21545;BME280;10933;50.754;11.508;2023-12-28T03:49:40;99502.22;;;9.54;100.00
21545;BME280;10933;50.754;11.508;2023-12-28T03:52:06;99504.81;;;9.49;100.00
21545;BME280;10933;50.754;11.508;2023-12-28T03:54:32;99481.38;;;9.49;100.00
21545;BME280;10933;50.754;11.508;2023-12-28T03:56:58;99483.56;;;9.52;100.00
21545;BME280;10933;50.754;11.508;2023-12-28T03:59:24;99475.69;;;9.46;100.00
21545;BME280;10933;50.754;11.508;2023-12-28T04:01:50;99445.50;;;9.43;100.00
21545;BME280;10933;50.754;11.508;2023-12-28T04:04:16;99487.03;;;9.48;100.00
21545;BME280;10933;50.754;11.508;2023-12-28T04:06:42;99490.09;;;9.39;100.00
21545;BME280;10933;50.754;11.508;2023-12-28T04:09:12;99490.69;;;9.41;100.00
21545;BME280;10933;50.754;11.508;2023-12-28T04:11:38;99504.38;;;9.40;100.00
21545;BME280;10933;50.754;11.508;2023-12-28T04:14:04;99519.47;;;9.24;100.00
21545;BME280;10933;50.754;11.508;2023-12-28T04:16:30;99549.06;;;9.07;100.00
21545;BME280;10933;50.754;11.508;2023-12-28T04:18:56;99546.84;;;9.04;100.00
21545;BME280;10933;50.754;11.508;2023-12-28T04:21:22;99544.28;;;8.98;100.00
21545;BME280;10933;50.754;11.508;2023-12-28T04:23:49;99561.56;;;9.02;100.00
21545;BME280;10933;50.754;11.508;2023-12-28T04:26:18;99556.31;;;9.07;100.00
21545;BME280;10933;50.754;11.508;2023-12-28T04:28:46;99552.06;;;9.11;100.00
21545;BME280;10933;50.754;11.508;2023-12-28T04:31:12;99560.31;;;9.04;100.00
21545;BME280;10933;50.754;11.508;2023-12-28T04:33:38;99578.50;;;9.14;100.00
21545;BME280;10933;50.754;11.508;2023-12-28T04:36:05;99574.56;;;9.05;100.00
21545;BME280;10933;50.754;11.508;2023-12-28T04:38:31;99590.97;;;9.03;100.00
21545;BME280;10933;50.754;11.508;2023-12-28T04:40:58;99597.53;;;8.96;100.00
21545;BME280;10933;50.754;11.508;2023-12-28T04:43:24;99611.06;;;9.01;100.00
21545;BME280;10933;50.754;11.508;2023-12-28T04:45:51;99612.25;;;9.05;100.00
21545;BME280;10933;50.754;11.508;2023-12-28T04:48:17;99597.88;;;8.88;100.00
21545;BME280;10933;50.754;11.508;2023-12-28T04:50:47;99612.31;;;9.10;100.00
21545;BME280;10933;50.754;11.508;2023-12-28T04:53:14;99608.97;;;9.03;100.00
21545;BME280;10933;50.754;11.508;2023-12-28T04:55:40;99602.13;;;9.12;100.00
21545;BME280;10933;50.754;11.508;2023-12-28T04:58:06;99596.81;;;9.29;100.00
21545;BME280;10933;50.754;11.508;2023-12-28T05:00:33;99616.56;;;9.34;100.00
21545;BME280;10933;50.754;11.508;2023-12-28T05:02:59;99613.06;;;9.34;100.00
21545;BME280;10933;50.754;11.508;2023-12-28T05:05:25;99611.66;;;9.31;100.00
21545;BME280;10933;50.754;11.508;2023-12-28T05:07:51;99620.03;;;9.18;100.00
21545;BME280;10933;50.754;11.508;2023-12-28T05:10:17;99609.34;;;9.23;100.00
21545;BME280;10933;50.754;11.508;2023-12-28T05:12:43;99592.06;;;9.19;100.00
21545;BME280;10933;50.754;11.508;2023-12-28T05:15:10;99618.69;;;9.32;100.00
21545;BME280;10933;50.754;11.508;2023-12-28T05:17:37;99623.41;;;9.13;100.00
21545;BME280;10933;50.754;11.508;2023-12-28T05:20:03;99631.38;;;9.20;100.00
21545;BME280;10933;50.754;11.508;2023-12-28T05:22:29;99635.13;;;9.19;100.00
21545;BME280;10933;50.754;11.508;2023-12-28T05:24:56;99634.09;;;9.08;100.00
21545;BME280;10933;50.754;11.508;2023-12-28T05:27:22;99621.19;;;9.22;100.00
21545;BME280;10933;50.754;11.508;2023-12-28T05:29:48;99634.97;;;9.26;100.00
21545;BME280;10933;50.754;11.508;2023-12-28T05:32:14;99627.38;;;9.23;100.00
21545;BME280;10933;50.754;11.508;2023-12-28T05:34:40;99623.00;;;10.12;100.00
21545;BME280;10933;50.754;11.508;2023-12-28T05:37:06;99598.50;;;10.14;100.00
21545;BME280;10933;50.754;11.508;2023-12-28T05:39:32;99620.72;;;10.21;100.00
21545;BME280;10933;50.754;11.508;2023-12-28T05:41:59;99599.06;;;10.16;100.00
21545;BME280;10933;50.754;11.508;2023-12-28T05:44:25;99613.78;;;10.25;100.00
21545;BME280;10933;50.754;11.508;2023-12-28T05:46:51;99586.72;;;10.03;100.00
21545;BME280;10933;50.754;11.508;2023-12-28T05:49:18;99592.28;;;10.13;100.00
21545;BME280;10933;50.754;11.508;2023-12-28T05:51:44;99610.34;;;10.13;100.00
21545;BME280;10933;50.754;11.508;2023-12-28T05:54:10;99610.53;;;10.23;100.00
21545;BME280;10933;50.754;11.508;2023-12-28T05:56:36;99608.28;;;10.03;100.00
21545;BME280;10933;50.754;11.508;2023-12-28T05:59:02;99621.38;;;10.11;100.00
21545;BME280;10933;50.754;11.508;2023-12-28T06:01:29;99616.28;;;10.15;100.00
21545;BME280;10933;50.754;11.508;2023-12-28T06:03:55;99629.03;;;10.02;100.00
21545;BME280;10933;50.754;11.508;2023-12-28T06:06:21;99669.25;;;10.21;100.00
21545;BME280;10933;50.754;11.508;2023-12-28T06:08:47;99684.94;;;10.24;100.00
21545;BME280;10933;50.754;11.508;2023-12-28T06:11:13;99669.53;;;9.91;100.00
21545;BME280;10933;50.754;11.508;2023-12-28T06:13:39;99695.72;;;10.24;100.00
21545;BME280;10933;50.754;11.508;2023-12-28T06:16:06;99707.31;;;10.41;100.00
21545;BME280;10933;50.754;11.508;2023-12-28T06:18:32;99693.41;;;10.16;100.00
21545;BME280;10933;50.754;11.508;2023-12-28T06:20:58;99683.84;;;9.63;100.00
21545;BME280;10933;50.754;11.508;2023-12-28T06:23:24;99697.03;;;9.76;100.00
21545;BME280;10933;50.754;11.508;2023-12-28T06:25:50;99689.44;;;9.73;100.00
21545;BME280;10933;50.754;11.508;2023-12-28T06:28:16;99678.09;;;9.88;100.00
21545;BME280;10933;50.754;11.508;2023-12-28T06:30:42;99684.91;;;9.62;100.00
21545;BME280;10933;50.754;11.508;2023-12-28T06:33:08;99683.47;;;9.71;100.00
21545;BME280;10933;50.754;11.508;2023-12-28T06:35:34;99700.03;;;9.63;100.00
21545;BME280;10933;50.754;11.508;2023-12-28T06:38:01;99694.16;;;9.66;100.00
21545;BME280;10933;50.754;11.508;2023-12-28T06:40:28;99685.31;;;9.54;100.00
21545;BME280;10933;50.754;11.508;2023-12-28T06:42:54;99686.09;;;9.66;100.00
21545;BME280;10933;50.754;11.508;2023-12-28T06:45:20;99684.16;;;9.50;100.00
21545;BME280;10933;50.754;11.508;2023-12-28T06:47:48;99675.66;;;9.41;100.00
21545;BME280;10933;50.754;11.508;2023-12-28T06:50:14;99660.16;;;9.48;100.00
21545;BME280;10933;50.754;11.508;2023-12-28T06:52:40;99668.47;;;9.47;100.00
21545;BME280;10933;50.754;11.508;2023-12-28T06:55:07;99656.56;;;9.42;100.00
21545;BME280;10933;50.754;11.508;2023-12-28T06:57:33;99659.41;;;9.36;100.00
21545;BME280;10933;50.754;11.508;2023-12-28T06:59:59;99636.47;;;9.33;100.00
21545;BME280;10933;50.754;11.508;2023-12-28T07:02:27;99661.97;;;9.42;100.00
21545;BME280;10933;50.754;11.508;2023-12-28T07:04:53;99666.91;;;9.34;100.00
21545;BME280;10933;50.754;11.508;2023-12-28T07:07:20;99650.81;;;9.39;100.00
21545;BME280;10933;50.754;11.508;2023-12-28T07:09:46;99661.31;;;9.52;100.00
21545;BME280;10933;50.754;11.508;2023-12-28T07:12:12;99644.22;;;9.30;100.00
21545;BME280;10933;50.754;11.508;2023-12-28T07:14:38;99656.22;;;9.39;100.00
21545;BME280;10933;50.754;11.508;2023-12-28T07:17:04;99664.44;;;9.61;100.00
21545;BME280;10933;50.754;11.508;2023-12-28T07:19:30;99657.91;;;9.57;100.00
21545;BME280;10933;50.754;11.508;2023-12-28T07:21:56;99663.91;;;9.19;100.00
21545;BME280;10933;50.754;11.508;2023-12-28T07:24:22;99674.84;;;9.40;100.00
21545;BME280;10933;50.754;11.508;2023-12-28T07:26:48;99691.84;;;9.58;100.00
21545;BME280;10933;50.754;11.508;2023-12-28T07:29:14;99679.34;;;9.23;100.00
21545;BME280;10933;50.754;11.508;2023-12-28T07:31:40;99687.84;;;9.32;100.00
21545;BME280;10933;50.754;11.508;2023-12-28T07:34:06;99687.84;;;9.32;100.00
21545;BME280;10933;50.754;11.508;2023-12-28T07:36:33;99686.44;;;9.41;100.00
21545;BME280;10933;50.754;11.508;2023-12-28T07:38:59;99680.97;;;9.53;100.00
21545;BME280;10933;50.754;11.508;2023-12-28T07:41:25;99694.16;;;9.66;100.00
21545;BME280;10933;50.754;11.508;2023-12-28T07:43:51;99687.16;;;9.25;100.00
21545;BME280;10933;50.754;11.508;2023-12-28T07:46:17;99686.28;;;9.48;100.00
21545;BME280;10933;50.754;11.508;2023-12-28T07:48:43;99694.59;;;9.46;100.00
21545;BME280;10933;50.754;11.508;2023-12-28T07:51:09;99696.56;;;9.51;100.00
21545;BME280;10933;50.754;11.508;2023-12-28T07:53:35;99699.50;;;9.49;100.00
21545;BME280;10933;50.754;11.508;2023-12-28T07:56:01;99706.94;;;9.59;100.00
21545;BME280;10933;50.754;11.508;2023-12-28T07:58:27;99719.44;;;9.93;100.00
21545;BME280;10933;50.754;11.508;2023-12-28T08:00:53;99710.78;;;9.63;100.00
21545;BME280;10933;50.754;11.508;2023-12-28T08:03:19;99699.16;;;9.46;100.00
21545;BME280;10933;50.754;11.508;2023-12-28T08:05:45;99701.94;;;9.51;100.00
21545;BME280;10933;50.754;11.508;2023-12-28T08:08:12;99691.56;;;9.42;100.00
21545;BME280;10933;50.754;11.508;2023-12-28T08:10:38;99696.56;;;9.51;100.00
21545;BME280;10933;50.754;11.508;2023-12-28T08:13:04;99696.31;;;9.81;100.00
21545;BME280;10933;50.754;11.508;2023-12-28T08:15:30;99698.09;;;9.75;100.00
21545;BME280;10933;50.754;11.508;2023-12-28T08:17:56;99696.56;;;9.10;100.00
21545;BME280;10933;50.754;11.508;2023-12-28T08:20:22;99703.94;;;9.15;100.00
21545;BME280;10933;50.754;11.508;2023-12-28T08:22:48;99705.03;;;9.42;100.00
21545;BME280;10933;50.754;11.508;2023-12-28T08:25:14;99709.13;;;8.81;100.00
21545;BME280;10933;50.754;11.508;2023-12-28T08:27:40;99711.34;;;8.84;100.00
21545;BME280;10933;50.754;11.508;2023-12-28T08:30:08;99726.91;;;8.94;100.00
21545;BME280;10933;50.754;11.508;2023-12-28T08:32:34;99728.84;;;9.10;100.00
21545;BME280;10933;50.754;11.508;2023-12-28T08:35:00;99727.31;;;9.26;100.00
21545;BME280;10933;50.754;11.508;2023-12-28T08:37:26;99733.31;;;9.57;100.00
21545;BME280;10933;50.754;11.508;2023-12-28T08:39:52;99739.19;;;9.54;100.00
21545;BME280;10933;50.754;11.508;2023-12-28T08:42:19;99741.41;;;9.57;100.00
21545;BME280;10933;50.754;11.508;2023-12-28T08:44:45;99747.72;;;9.51;100.00
21545;BME280;10933;50.754;11.508;2023-12-28T08:47:11;99748.50;;;9.63;100.00
21545;BME280;10933;50.754;11.508;2023-12-28T08:49:37;99746.94;;;9.38;100.00
21545;BME280;10933;50.754;11.508;2023-12-28T08:52:03;99736.16;;;9.38;100.00
21545;BME280;10933;50.754;11.508;2023-12-28T08:54:30;99733.75;;;9.25;100.00
21545;BME280;10933;50.754;11.508;2023-12-28T08:56:56;99730.31;;;9.41;100.00
21545;BME280;10933;50.754;11.508;2023-12-28T08:59:22;99734.34;;;9.67;100.00
21545;BME280;10933;50.754;11.508;2023-12-28T09:01:48;99749.91;;;9.94;100.00
21545;BME280;10933;50.754;11.508;2023-12-28T09:04:14;99744.94;;;9.74;100.00
21545;BME280;10933;50.754;11.508;2023-12-28T09:06:40;99748.41;;;9.86;100.00
21545;BME280;10933;50.754;11.508;2023-12-28T09:09:06;99738.50;;;9.75;100.00
21545;BME280;10933;50.754;11.508;2023-12-28T09:11:32;99741.06;;;9.82;100.00
21545;BME280;10933;50.754;11.508;2023-12-28T09:13:58;99741.75;;;9.77;100.00
21545;BME280;10933;50.754;11.508;2023-12-28T09:16:25;99736.88;;;9.74;100.00
21545;BME280;10933;50.754;11.508;2023-12-28T09:18:51;99742.88;;;9.93;100.00
21545;BME280;10933;50.754;11.508;2023-12-28T09:21:17;99719.56;;;9.41;100.00
21545;BME280;10933;50.754;11.508;2023-12-28T09:23:43;99722.09;;;9.48;100.00
21545;BME280;10933;50.754;11.508;2023-12-28T09:26:10;99720.09;;;9.55;100.00
21545;BME280;10933;50.754;11.508;2023-12-28T09:28:36;99726.56;;;9.99;100.00
21545;BME280;10933;50.754;11.508;2023-12-28T09:31:03;99728.75;;;10.02;100.00
21545;BME280;10933;50.754;11.508;2023-12-28T09:33:30;99716.88;;;9.70;100.00
21545;BME280;10933;50.754;11.508;2023-12-28T09:35:56;99729.97;;;9.95;100.00
21545;BME280;10933;50.754;11.508;2023-12-28T09:38:22;99727.22;;;10.07;100.00
21545;BME280;10933;50.754;11.508;2023-12-28T09:40:53;99726.53;;;10.28;100.00
21545;BME280;10933;50.754;11.508;2023-12-28T09:43:24;99726.56;;;10.16;100.00
21545;BME280;10933;50.754;11.508;2023-12-28T09:45:54;99724.81;;;10.22;100.00
21545;BME280;10933;50.754;11.508;2023-12-28T09:48:21;99725.63;;;10.39;100.00
21545;BME280;10933;50.754;11.508;2023-12-28T09:50:54;99728.59;;;10.54;100.00
21545;BME280;10933;50.754;11.508;2023-12-28T09:53:24;99717.28;;;10.24;100.00
21545;BME280;10933;50.754;11.508;2023-12-28T09:55:51;99714.41;;;9.68;100.00
21545;BME280;10933;50.754;11.508;2023-12-28T09:58:19;99716.53;;;10.12;100.00
21545;BME280;10933;50.754;11.508;2023-12-28T10:00:47;99719.53;;;10.44;100.00
21545;BME280;10933;50.754;11.508;2023-12-28T10:03:15;99709.09;;;10.19;100.00
21545;BME280;10933;50.754;11.508;2023-12-28T10:05:41;99698.16;;;10.09;100.00
21545;BME280;10933;50.754;11.508;2023-12-28T10:08:08;99711.09;;;10.23;100.00
21545;BME280;10933;50.754;11.508;2023-12-28T10:10:34;99713.78;;;10.40;100.00
21545;BME280;10933;50.754;11.508;2023-12-28T10:13:01;99713.22;;;10.55;100.00
21545;BME280;10933;50.754;11.508;2023-12-28T10:15:28;99727.59;;;10.60;100.00
21545;BME280;10933;50.754;11.508;2023-12-28T10:17:54;99727.91;;;10.64;100.00
21545;BME280;10933;50.754;11.508;2023-12-28T10:20:20;99718.78;;;10.48;100.00
21545;BME280;10933;50.754;11.508;2023-12-28T10:22:46;99711.25;;;10.50;100.00
21545;BME280;10933;50.754;11.508;2023-12-28T10:25:13;99711.00;;;10.52;100.00
21545;BME280;10933;50.754;11.508;2023-12-28T10:27:40;99709.44;;;10.39;100.00
21545;BME280;10933;50.754;11.508;2023-12-28T10:33:15;99713.88;;;10.45;100.00
21545;BME280;10933;50.754;11.508;2023-12-28T10:35:42;99716.59;;;10.84;100.00
21545;BME280;10933;50.754;11.508;2023-12-28T10:38:11;99717.41;;;10.84;100.00
21545;BME280;10933;50.754;11.508;2023-12-28T10:40:40;99718.50;;;10.83;100.00
21545;BME280;10933;50.754;11.508;2023-12-28T10:43:08;99709.75;;;10.76;100.00
21545;BME280;10933;50.754;11.508;2023-12-28T10:45:39;99719.81;;;11.03;100.00
21545;BME280;10933;50.754;11.508;2023-12-28T10:48:10;99724.34;;;11.63;100.00
21545;BME280;10933;50.754;11.508;2023-12-28T10:50:47;99718.75;;;11.69;100.00
21545;BME280;10933;50.754;11.508;2023-12-28T10:53:52;99718.22;;;11.94;100.00
21545;BME280;10933;50.754;11.508;2023-12-28T10:56:46;99716.13;;;12.01;100.00
21545;BME280;10933;50.754;11.508;2023-12-28T11:02:08;99725.28;;;13.07;100.00
21545;BME280;10933;50.754;11.508;2023-12-28T11:04:48;99705.06;;;12.35;100.00
21545;BME280;10933;50.754;11.508;2023-12-28T11:07:17;99708.44;;;12.57;100.00
21545;BME280;10933;50.754;11.508;2023-12-28T11:09:44;99713.72;;;12.74;100.00
21545;BME280;10933;50.754;11.508;2023-12-28T11:12:10;99689.13;;;12.06;100.00
21545;BME280;10933;50.754;11.508;2023-12-28T11:14:40;99708.28;;;12.00;100.00
21545;BME280;10933;50.754;11.508;2023-12-28T11:17:06;99712.56;;;12.60;100.00
21545;BME280;10933;50.754;11.508;2023-12-28T11:19:34;99713.66;;;12.64;100.00
21545;BME280;10933;50.754;11.508;2023-12-28T11:22:02;99714.75;;;12.31;100.00
21545;BME280;10933;50.754;11.508;2023-12-28T11:24:29;99700.19;;;12.05;100.00
21545;BME280;10933;50.754;11.508;2023-12-28T11:26:57;99709.41;;;12.41;100.00
21545;BME280;10933;50.754;11.508;2023-12-28T11:29:24;99730.09;;;12.20;100.00
21545;BME280;10933;50.754;11.508;2023-12-28T11:31:58;99720.19;;;13.15;100.00
21545;BME280;10933;50.754;11.508;2023-12-28T11:34:31;99699.22;;;12.53;100.00
21545;BME280;10933;50.754;11.508;2023-12-28T11:37:06;99703.47;;;12.81;100.00
21545;BME280;10933;50.754;11.508;2023-12-28T11:39:37;99704.59;;;12.90;100.00
21545;BME280;10933;50.754;11.508;2023-12-28T11:42:06;99702.28;;;12.30;100.00
21545;BME280;10933;50.754;11.508;2023-12-28T11:47:22;99695.19;;;12.56;100.00
21545;BME280;10933;50.754;11.508;2023-12-28T11:49:48;99685.50;;;12.60;100.00
21545;BME280;10933;50.754;11.508;2023-12-28T11:52:29;99684.84;;;12.90;100.00
21545;BME280;10933;50.754;11.508;2023-12-28T11:54:56;99692.91;;;13.22;100.00
21545;BME280;10933;50.754;11.508;2023-12-28T11:57:23;99695.66;;;13.42;100.00
21545;BME280;10933;50.754;11.508;2023-12-28T11:59:56;99695.75;;;13.78;100.00
21545;BME280;10933;50.754;11.508;2023-12-28T12:02:23;99662.38;;;12.89;100.00
21545;BME280;10933;50.754;11.508;2023-12-28T12:04:54;99698.69;;;13.56;100.00
21545;BME280;10933;50.754;11.508;2023-12-28T12:07:20;99704.41;;;13.60;100.00
21545;BME280;10933;50.754;11.508;2023-12-28T12:09:47;99703.06;;;13.82;100.00
21545;BME280;10933;50.754;11.508;2023-12-28T12:12:16;99694.63;;;12.96;100.00
21545;BME280;10933;50.754;11.508;2023-12-28T12:14:43;99696.75;;;13.36;100.00
21545;BME280;10933;50.754;11.508;2023-12-28T12:17:09;99696.06;;;13.14;100.00
21545;BME280;10933;50.754;11.508;2023-12-28T12:19:35;99667.38;;;12.65;100.00
21545;BME280;10933;50.754;11.508;2023-12-28T12:22:01;99683.72;;;12.38;100.00
21545;BME280;10933;50.754;11.508;2023-12-28T12:24:27;99693.72;;;12.38;100.00
21545;BME280;10933;50.754;11.508;2023-12-28T12:26:53;99694.69;;;12.22;100.00
21545;BME280;10933;50.754;11.508;2023-12-28T12:29:20;99658.44;;;11.91;100.00
21545;BME280;10933;50.754;11.508;2023-12-28T12:31:47;99702.66;;;12.44;100.00
21545;BME280;10933;50.754;11.508;2023-12-28T12:34:17;99684.72;;;11.95;100.00
21545;BME280;10933;50.754;11.508;2023-12-28T12:36:43;99694.97;;;12.25;100.00
21545;BME280;10933;50.754;11.508;2023-12-28T12:39:13;99688.44;;;11.89;100.00
21545;BME280;10933;50.754;11.508;2023-12-28T12:41:40;99702.44;;;12.13;100.00
21545;BME280;10933;50.754;11.508;2023-12-28T12:44:07;99714.00;;;12.41;100.00
21545;BME280;10933;50.754;11.508;2023-12-28T12:46:33;99702.72;;;12.17;100.00
21545;BME280;10933;50.754;11.508;2023-12-28T12:49:00;99704.44;;;11.96;100.00
21545;BME280;10933;50.754;11.508;2023-12-28T12:51:28;99697.22;;;12.33;100.00
21545;BME280;10933;50.754;11.508;2023-12-28T12:53:58;99703.91;;;12.26;100.00
21545;BME280;10933;50.754;11.508;2023-12-28T12:56:29;99690.09;;;12.22;100.00
21545;BME280;10933;50.754;11.508;2023-12-28T12:58:56;99703.97;;;12.04;100.00
21545;BME280;10933;50.754;11.508;2023-12-28T13:01:23;99694.22;;;12.03;100.00